Time;durP1;ratioP1;P1;durP2;ratioP2;P2;SDS_P1;SDS_P2;PMS_P1;PMS_P2;Temp;Humidity;BMP_temperature;BMP_pressure;BME280_temperature;BME280_humidity;BME280_pressure;Samples;Min_cycle;Max_cycle;Signal;HPM_P1;HPM_P2
2024/02/11 00:00:48;;;;;;;26.10;6.10;;;12.00;99.90;;;;;;5087809;28;20259;-83
2024/02/11 00:03:16;;;;;;;17.30;4.73;;;12.00;99.90;;;;;;5080255;28;20220;-83
2024/02/11 00:05:49;;;;;;;15.07;4.90;;;12.00;99.90;;;;;;5097175;28;20214;-82
2024/02/11 00:08:17;;;;;;;27.27;5.70;;;12.00;99.90;;;;;;5080834;28;20195;-82
2024/02/11 00:10:45;;;;;;;16.03;5.77;;;12.00;99.90;;;;;;5086388;28;20298;-83
2024/02/11 00:13:13;;;;;;;20.57;5.93;;;12.10;99.90;;;;;;5086547;28;20228;-82
2024/02/11 00:15:43;;;;;;;21.33;5.23;;;12.10;99.90;;;;;;5088206;28;20218;-82
2024/02/11 00:18:14;;;;;;;26.00;6.50;;;12.10;99.90;;;;;;5091701;28;20197;-83
2024/02/11 00:20:42;;;;;;;15.50;5.77;;;12.10;99.90;;;;;;5074968;28;20237;-82
2024/02/11 00:23:10;;;;;;;17.47;5.77;;;12.10;99.90;;;;;;5093612;28;20218;-82
2024/02/11 00:25:39;;;;;;;20.17;6.53;;;12.10;99.90;;;;;;5086130;28;20509;-82
2024/02/11 00:28:10;;;;;;;28.33;6.00;;;12.10;99.90;;;;;;5082920;28;20223;-82
2024/02/11 00:30:37;;;;;;;14.67;6.53;;;12.20;99.90;;;;;;5090496;28;20199;-82
2024/02/11 00:33:05;;;;;;;23.60;6.93;;;12.20;99.90;;;;;;5088926;28;20194;-82
2024/02/11 00:35:36;;;;;;;25.47;6.67;;;12.20;99.90;;;;;;5096114;28;20202;-82
2024/02/11 00:38:03;;;;;;;24.23;8.17;;;12.20;99.90;;;;;;5107032;28;20219;-82
2024/02/11 00:40:31;;;;;;;18.50;6.33;;;12.20;99.90;;;;;;5069635;28;20666;-82
2024/02/11 00:42:59;;;;;;;15.70;6.00;;;12.20;99.90;;;;;;5074787;28;20298;-82
2024/02/11 00:45:29;;;;;;;20.40;6.13;;;12.20;99.90;;;;;;5090154;28;20654;-82
2024/02/11 00:47:56;;;;;;;24.00;6.20;;;12.20;99.90;;;;;;5092898;28;20216;-82
2024/02/11 00:50:24;;;;;;;32.50;6.70;;;12.30;99.90;;;;;;5089256;28;20202;-83
2024/02/11 00:52:51;;;;;;;20.83;5.60;;;12.20;99.90;;;;;;5081029;28;20204;-82
2024/02/11 00:55:21;;;;;;;23.73;7.00;;;12.30;99.90;;;;;;5095019;28;20269;-82
2024/02/11 00:57:51;;;;;;;21.57;6.47;;;12.20;99.90;;;;;;5102688;28;20235;-83
2024/02/11 01:00:19;;;;;;;21.50;5.97;;;12.20;99.90;;;;;;5004985;28;20306;-82
2024/02/11 01:02:47;;;;;;;18.97;6.10;;;12.20;99.90;;;;;;4984976;28;20253;-82
2024/02/11 01:05:15;;;;;;;20.07;5.30;;;12.20;99.90;;;;;;5023658;28;20207;-82
2024/02/11 01:07:46;;;;;;;18.50;5.03;;;12.20;99.90;;;;;;5011875;28;20594;-81
2024/02/11 01:10:17;;;;;;;14.97;4.73;;;12.20;99.90;;;;;;5014038;28;20195;-81
2024/02/11 01:12:45;;;;;;;21.80;5.37;;;12.20;99.90;;;;;;5068934;28;20203;-81
2024/02/11 01:15:16;;;;;;;19.17;4.80;;;12.20;99.90;;;;;;5015288;28;20779;-81
2024/02/11 01:17:44;;;;;;;13.53;4.23;;;12.20;99.90;;;;;;5012764;28;20231;-82
2024/02/11 01:20:14;;;;;;;13.07;4.90;;;12.20;99.90;;;;;;4996122;28;20204;-81
2024/02/11 01:22:46;;;;;;;21.43;5.03;;;12.20;99.90;;;;;;4991914;28;20231;-81
2024/02/11 01:25:21;;;;;;;15.80;5.00;;;12.20;99.90;;;;;;5019819;28;20217;-81
2024/02/11 01:27:50;;;;;;;16.80;4.57;;;12.20;99.90;;;;;;5010216;28;20203;-81
2024/02/11 01:30:19;;;;;;;15.83;4.47;;;12.20;99.90;;;;;;5023214;28;20237;-81
2024/02/11 01:32:48;;;;;;;23.73;5.07;;;12.20;99.90;;;;;;5035401;28;20205;-81
2024/02/11 01:35:16;;;;;;;15.37;4.20;;;12.20;99.90;;;;;;5008336;28;20654;-81
2024/02/11 01:37:47;;;;;;;17.13;4.63;;;12.20;99.90;;;;;;5015075;28;20220;-81
2024/02/11 01:40:17;;;;;;;16.30;4.73;;;12.20;99.90;;;;;;5012367;28;20213;-81
2024/02/11 01:42:46;;;;;;;25.80;5.20;;;12.20;99.90;;;;;;5000912;28;20225;-81
2024/02/11 01:45:15;;;;;;;18.37;4.90;;;12.20;99.90;;;;;;5039025;28;20222;-82
2024/02/11 01:47:45;;;;;;;16.30;4.50;;;12.20;99.90;;;;;;5006338;28;20646;-81
2024/02/11 01:50:18;;;;;;;16.33;5.23;;;12.20;99.90;;;;;;5009307;28;20213;-81
2024/02/11 01:52:48;;;;;;;22.23;4.80;;;12.20;99.90;;;;;;5015424;28;20214;-81
2024/02/11 01:55:23;;;;;;;14.63;4.17;;;12.20;99.90;;;;;;5006181;28;20213;-81
2024/02/11 01:57:55;;;;;;;14.43;4.10;;;12.20;99.90;;;;;;5017428;28;20245;-81
2024/02/11 02:00:23;;;;;;;15.40;4.80;;;12.20;99.90;;;;;;5055112;28;20196;-81
2024/02/11 02:02:55;;;;;;;17.13;5.63;;;12.20;99.90;;;;;;5000415;28;20236;-81
2024/02/11 02:05:23;;;;;;;18.43;5.23;;;12.20;99.90;;;;;;5009663;28;20232;-81
2024/02/11 02:07:55;;;;;;;20.17;5.80;;;12.20;99.90;;;;;;4999245;28;20223;-80
2024/02/11 02:10:23;;;;;;;13.87;4.93;;;12.30;99.90;;;;;;4997794;28;20204;-81
2024/02/11 02:12:51;;;;;;;17.23;5.27;;;12.30;99.90;;;;;;5018625;28;20196;-81
2024/02/11 02:15:25;;;;;;;11.60;4.57;;;12.30;99.90;;;;;;4986416;28;20206;-81
2024/02/11 02:17:54;;;;;;;11.40;4.53;;;12.30;99.90;;;;;;5035253;28;20219;-81
2024/02/11 02:20:22;;;;;;;21.73;4.80;;;12.30;99.90;;;;;;4993194;28;20256;-81
2024/02/11 02:22:50;;;;;;;14.33;4.87;;;12.30;99.90;;;;;;5006745;28;20262;-81
2024/02/11 02:25:20;;;;;;;17.80;4.90;;;12.30;99.90;;;;;;5016958;28;20259;-80
2024/02/11 02:27:47;;;;;;;27.93;5.27;;;12.30;99.90;;;;;;5001868;28;20382;-81
2024/02/11 02:30:15;;;;;;;13.50;5.17;;;12.30;99.90;;;;;;5078248;28;20203;-81
2024/02/11 02:32:44;;;;;;;20.87;5.93;;;12.30;99.90;;;;;;5002353;28;20217;-81
2024/02/11 02:35:21;;;;;;;22.70;5.00;;;12.30;99.90;;;;;;5017613;28;20269;-81
2024/02/11 02:37:53;;;;;;;23.17;5.17;;;12.30;99.90;;;;;;5013913;28;20285;-81
2024/02/11 02:40:26;;;;;;;17.57;5.13;;;12.30;99.90;;;;;;5018935;28;20645;-81
2024/02/11 02:42:57;;;;;;;15.20;5.33;;;12.30;99.90;;;;;;5032863;28;20201;-81
2024/02/11 02:45:25;;;;;;;13.60;4.23;;;12.30;99.90;;;;;;5017884;28;20220;-81
2024/02/11 02:47:53;;;;;;;13.47;5.20;;;12.30;99.90;;;;;;5017684;28;20210;-81
2024/02/11 02:50:22;;;;;;;23.93;5.70;;;12.30;99.90;;;;;;5015853;28;20206;-81
2024/02/11 02:52:50;;;;;;;24.83;6.17;;;12.30;99.90;;;;;;5021318;28;20261;-81
2024/02/11 02:55:26;;;;;;;21.03;5.47;;;12.30;99.90;;;;;;5024810;28;20196;-81
2024/02/11 02:57:54;;;;;;;21.80;5.90;;;12.30;99.90;;;;;;5003085;28;20232;-81
2024/02/11 03:00:23;;;;;;;17.33;5.63;;;12.30;99.90;;;;;;5012179;28;20215;-81
2024/02/11 03:02:52;;;;;;;21.20;6.33;;;12.30;99.90;;;;;;5026761;28;20198;-81
2024/02/11 03:05:22;;;;;;;28.70;6.70;;;12.30;99.90;;;;;;5036235;28;20608;-82
2024/02/11 03:07:52;;;;;;;21.03;5.63;;;12.30;99.90;;;;;;5054883;28;20252;-81
2024/02/11 03:10:21;;;;;;;26.63;6.10;;;12.30;99.90;;;;;;5016359;28;20669;-81
2024/02/11 03:12:49;;;;;;;18.50;5.77;;;12.30;99.90;;;;;;5038871;28;20203;-81
2024/02/11 03:15:16;;;;;;;18.37;4.90;;;12.30;99.90;;;;;;5018222;28;20208;-81
2024/02/11 03:17:44;;;;;;;20.37;5.53;;;12.30;99.90;;;;;;5012773;28;20303;-81
2024/02/11 03:20:15;;;;;;;19.07;6.80;;;12.30;99.90;;;;;;4997413;28;20215;-81
2024/02/11 03:22:44;;;;;;;24.77;6.40;;;12.30;99.90;;;;;;5008355;28;20211;-81
2024/02/11 03:25:13;;;;;;;29.80;7.20;;;12.30;99.90;;;;;;4980364;28;20679;-81
2024/02/11 03:27:45;;;;;;;30.77;6.87;;;12.30;99.90;;;;;;5011816;28;20203;-81
2024/02/11 03:30:15;;;;;;;29.17;7.37;;;12.30;99.90;;;;;;4978383;28;20208;-81
2024/02/11 03:32:45;;;;;;;31.23;7.17;;;12.30;99.90;;;;;;5010955;28;20239;-82
2024/02/11 03:35:12;;;;;;;41.43;7.23;;;12.30;99.90;;;;;;4986411;28;20211;-82
2024/02/11 03:37:40;;;;;;;40.87;8.40;;;12.30;99.90;;;;;;5005008;28;20211;-81
2024/02/11 03:40:11;;;;;;;52.10;8.07;;;12.30;99.90;;;;;;5020469;28;20274;-81
2024/02/11 03:42:39;;;;;;;64.63;8.77;;;12.30;99.90;;;;;;5011069;28;20230;-81
2024/02/11 03:45:11;;;;;;;38.63;9.10;;;12.30;99.90;;;;;;5082117;28;20215;-81
2024/02/11 03:47:39;;;;;;;50.63;9.03;;;12.30;99.90;;;;;;5028705;28;20234;-81
2024/02/11 03:50:15;;;;;;;43.27;9.43;;;12.20;99.90;;;;;;4992806;28;20293;-82
2024/02/11 03:52:44;;;;;;;54.57;10.17;;;12.20;99.90;;;;;;4992286;28;21044;-80
2024/02/11 03:55:12;;;;;;;49.83;10.80;;;12.20;99.90;;;;;;5016233;27;20221;-82
2024/02/11 03:57:40;;;;;;;53.97;9.00;;;12.20;99.90;;;;;;5033303;28;20699;-81
2024/02/11 04:00:24;;;;;;;52.90;10.23;;;12.20;99.90;;;;;;5071373;28;20202;-81
2024/02/11 04:02:57;;;;;;;33.30;9.13;;;12.20;99.90;;;;;;5033149;28;20210;-81
2024/02/11 04:05:28;;;;;;;54.03;9.83;;;12.20;99.90;;;;;;5012151;28;20212;-81
2024/02/11 04:07:56;;;;;;;71.53;8.73;;;12.20;99.90;;;;;;5019953;28;20209;-81
2024/02/11 04:10:28;;;;;;;118.00;11.40;;;12.20;99.90;;;;;;4995146;28;20204;-81
2024/02/11 04:12:58;;;;;;;61.87;10.80;;;12.20;99.90;;;;;;5060345;28;20231;-81
2024/02/11 04:15:27;;;;;;;42.90;11.23;;;12.20;99.90;;;;;;5015339;28;20211;-81
2024/02/11 04:18:07;;;;;;;49.47;10.97;;;12.20;99.90;;;;;;4997046;28;20297;-81
2024/02/11 04:20:36;;;;;;;46.50;10.07;;;12.20;99.90;;;;;;5007811;28;20211;-81
2024/02/11 04:23:07;;;;;;;71.93;10.13;;;12.20;99.90;;;;;;5001413;28;20216;-81
2024/02/11 04:25:41;;;;;;;35.63;9.73;;;12.20;99.90;;;;;;5013040;28;20202;-81
2024/02/11 04:28:09;;;;;;;47.10;11.60;;;12.20;99.90;;;;;;5011344;28;20654;-81
2024/02/11 04:30:39;;;;;;;39.80;11.60;;;12.20;99.90;;;;;;5003631;28;20219;-81
2024/02/11 04:33:13;;;;;;;30.87;10.37;;;12.20;99.90;;;;;;5025073;28;20213;-81
2024/02/11 04:35:42;;;;;;;179.00;12.00;;;12.20;99.90;;;;;;5009859;28;20206;-82
2024/02/11 04:38:12;;;;;;;40.87;9.63;;;12.20;99.90;;;;;;5011905;28;20226;-81
2024/02/11 04:40:44;;;;;;;33.50;9.70;;;12.20;99.90;;;;;;5005560;28;20234;-81
2024/02/11 04:43:18;;;;;;;55.70;11.00;;;12.20;99.90;;;;;;5001473;28;20208;-81
2024/02/11 04:45:46;;;;;;;35.90;11.27;;;12.20;99.90;;;;;;4998797;28;20196;-81
2024/02/11 04:48:19;;;;;;;41.03;9.60;;;12.20;99.90;;;;;;4994367;28;20220;-81
2024/02/11 04:50:48;;;;;;;41.93;9.47;;;12.20;99.90;;;;;;5077556;28;20593;-81
2024/02/11 04:53:18;;;;;;;67.23;10.33;;;12.20;99.90;;;;;;5044915;28;20209;-81
2024/02/11 04:55:50;;;;;;;37.53;10.43;;;12.20;99.90;;;;;;5012116;28;20578;-81
2024/02/11 04:58:23;;;;;;;37.53;9.93;;;12.20;99.90;;;;;;5030932;28;20302;-81
2024/02/11 05:00:51;;;;;;;30.23;9.57;;;12.20;99.90;;;;;;4987612;28;20647;-81
2024/02/11 05:03:20;;;;;;;31.50;9.40;;;12.20;99.90;;;;;;4996936;28;20203;-81
2024/02/11 05:05:51;;;;;;;31.67;10.27;;;12.20;99.90;;;;;;5012890;28;20672;-81
2024/02/11 05:08:22;;;;;;;37.83;10.50;;;12.20;99.90;;;;;;5010903;28;20198;-81
2024/02/11 05:10:53;;;;;;;30.07;10.90;;;12.20;99.90;;;;;;4994116;28;20266;-81
2024/02/11 05:13:29;;;;;;;37.87;10.33;;;12.20;99.90;;;;;;4993570;28;20204;-81
2024/02/11 05:16:01;;;;;;;43.63;11.73;;;12.20;99.90;;;;;;5071450;28;20292;-81
2024/02/11 05:18:29;;;;;;;51.80;11.63;;;12.20;99.90;;;;;;4996511;28;20215;-81
2024/02/11 05:20:58;;;;;;;55.07;10.70;;;12.20;99.90;;;;;;5012577;28;20536;-81
2024/02/11 05:23:29;;;;;;;51.37;11.20;;;12.20;99.90;;;;;;5008216;28;20209;-81
2024/02/11 05:26:00;;;;;;;39.47;11.07;;;12.20;99.90;;;;;;5000088;28;20621;-81
2024/02/11 05:28:29;;;;;;;44.00;10.93;;;12.20;99.90;;;;;;5115970;28;20191;-82
2024/02/11 05:30:56;;;;;;;65.00;12.33;;;12.20;99.90;;;;;;5041664;28;20204;-81
2024/02/11 05:33:25;;;;;;;33.57;11.90;;;12.20;99.90;;;;;;4983116;28;20208;-81
2024/02/11 05:35:53;;;;;;;30.27;11.77;;;12.20;99.90;;;;;;5002827;28;20264;-81
2024/02/11 05:38:24;;;;;;;52.67;11.53;;;12.20;99.90;;;;;;4995539;28;20294;-81
2024/02/11 05:40:59;;;;;;;36.53;11.47;;;12.30;99.90;;;;;;5024751;28;20298;-81
2024/02/11 05:43:27;;;;;;;64.90;14.10;;;12.20;99.90;;;;;;5008053;28;20211;-81
2024/02/11 05:45:54;;;;;;;46.20;13.07;;;12.20;99.90;;;;;;4996862;28;20216;-82
2024/02/11 05:48:23;;;;;;;41.00;12.33;;;12.30;99.90;;;;;;5020734;28;20200;-81
2024/02/11 05:50:52;;;;;;;46.27;13.20;;;12.20;99.90;;;;;;5001820;28;20207;-81
2024/02/11 05:53:20;;;;;;;60.43;13.60;;;12.20;99.90;;;;;;4987338;28;20214;-82
2024/02/11 05:55:49;;;;;;;50.00;13.33;;;12.20;99.90;;;;;;5010173;28;20207;-81
2024/02/11 05:58:18;;;;;;;38.00;12.27;;;12.20;99.90;;;;;;5007953;28;20286;-82
2024/02/11 06:00:47;;;;;;;50.13;14.27;;;12.20;99.90;;;;;;5005880;28;20214;-81
2024/02/11 06:03:20;;;;;;;36.93;13.57;;;12.30;99.90;;;;;;5020880;28;20217;-82
2024/02/11 06:05:49;;;;;;;103.50;14.43;;;12.30;99.90;;;;;;5022519;28;20311;-81
2024/02/11 06:08:16;;;;;;;318.60;20.60;;;12.30;99.90;;;;;;5028735;28;20224;-81
2024/02/11 06:10:46;;;;;;;53.80;13.60;;;12.20;99.90;;;;;;5000706;28;20231;-81
2024/02/11 06:13:14;;;;;;;126.80;15.03;;;12.20;99.90;;;;;;5009945;28;20651;-81
2024/02/11 06:15:47;;;;;;;69.90;14.20;;;12.20;99.90;;;;;;5013271;28;20204;-81
2024/02/11 06:18:18;;;;;;;35.77;13.13;;;12.20;99.90;;;;;;5011951;28;20368;-81
2024/02/11 06:20:47;;;;;;;29.67;14.10;;;12.20;99.90;;;;;;4999626;28;20257;-82
2024/02/11 06:23:16;;;;;;;92.57;14.27;;;12.20;99.90;;;;;;4988909;28;20218;-81
2024/02/11 06:25:50;;;;;;;37.00;13.50;;;12.20;99.90;;;;;;4994317;28;20686;-82
2024/02/11 06:28:19;;;;;;;34.33;13.50;;;12.20;99.90;;;;;;5042040;28;20191;-82
2024/02/11 06:30:51;;;;;;;52.97;13.33;;;12.20;99.90;;;;;;5042357;28;20561;-81
2024/02/11 06:33:23;;;;;;;25.83;13.20;;;12.20;99.90;;;;;;4995658;28;20207;-81
2024/02/11 06:35:56;;;;;;;73.43;14.10;;;12.20;99.90;;;;;;5010232;28;20283;-81
2024/02/11 06:38:30;;;;;;;179.37;17.10;;;12.20;99.90;;;;;;5004594;28;20207;-81
2024/02/11 06:41:01;;;;;;;73.27;14.83;;;12.20;99.90;;;;;;4999185;28;20212;-81
2024/02/11 06:43:32;;;;;;;207.67;19.23;;;12.20;99.90;;;;;;4979589;28;20253;-82
2024/02/11 06:46:03;;;;;;;116.20;16.13;;;12.20;99.90;;;;;;4996232;28;20663;-82
2024/02/11 06:48:34;;;;;;;48.43;15.23;;;12.20;99.90;;;;;;4998217;28;20243;-82
2024/02/11 06:51:04;;;;;;;64.83;14.77;;;12.20;99.90;;;;;;5034812;28;20222;-81
2024/02/11 06:53:33;;;;;;;86.33;15.97;;;12.20;99.90;;;;;;5024144;28;20203;-81
2024/02/11 06:56:02;;;;;;;63.13;15.73;;;12.20;99.90;;;;;;5014889;28;20222;-82
2024/02/11 06:58:32;;;;;;;60.93;15.40;;;12.20;99.90;;;;;;4995610;28;20664;-82
2024/02/11 07:01:03;;;;;;;46.50;15.10;;;12.30;99.90;;;;;;5062892;28;20222;-81
2024/02/11 07:03:32;;;;;;;39.37;15.33;;;12.30;99.90;;;;;;4994877;28;20212;-81
2024/02/11 07:06:01;;;;;;;36.27;15.80;;;12.30;99.90;;;;;;5008201;28;20231;-81
2024/02/11 07:08:30;;;;;;;55.73;15.07;;;12.30;99.90;;;;;;4994472;28;20449;-81
2024/02/11 07:11:08;;;;;;;32.83;15.27;;;12.30;99.90;;;;;;5004755;28;20243;-81
2024/02/11 07:13:39;;;;;;;47.17;16.33;;;12.30;99.90;;;;;;5010946;28;20212;-81
2024/02/11 07:16:07;;;;;;;80.57;17.77;;;12.40;99.90;;;;;;5004759;28;20684;-81
2024/02/11 07:18:39;;;;;;;141.13;17.07;;;12.40;99.90;;;;;;4998249;28;20217;-82
2024/02/11 07:21:07;;;;;;;88.80;17.03;;;12.40;99.90;;;;;;5030120;28;20210;-82
2024/02/11 07:23:35;;;;;;;54.33;17.83;;;12.40;99.90;;;;;;5114203;28;20200;-81
2024/02/11 07:26:02;;;;;;;62.90;17.20;;;12.40;99.90;;;;;;5009687;28;20231;-82
2024/02/11 07:28:30;;;;;;;41.23;16.30;;;12.40;99.90;;;;;;5002152;28;20632;-81
2024/02/11 07:31:03;;;;;;;59.60;17.53;;;12.40;99.90;;;;;;5002320;28;20624;-81
2024/02/11 07:33:32;;;;;;;130.30;19.60;;;12.50;99.90;;;;;;5013564;28;20200;-81
2024/02/11 07:35:59;;;;;;;62.97;16.97;;;12.50;99.90;;;;;;5020673;28;20230;-81
2024/02/11 07:38:30;;;;;;;76.23;17.33;;;12.50;99.90;;;;;;4998317;28;20211;-81
2024/02/11 07:40:58;;;;;;;69.97;17.17;;;12.50;99.90;;;;;;4978233;28;20204;-82
2024/02/11 07:43:25;;;;;;;112.43;18.80;;;12.50;99.90;;;;;;5000382;28;20222;-81
2024/02/11 07:45:57;;;;;;;55.53;19.43;;;12.50;99.90;;;;;;4997409;28;20296;-81
2024/02/11 07:48:28;;;;;;;72.47;18.43;;;12.50;99.90;;;;;;5004111;28;20196;-81
2024/02/11 07:50:58;;;;;;;67.57;18.73;;;12.50;99.90;;;;;;5016471;28;20238;-82
2024/02/11 07:53:29;;;;;;;51.27;20.10;;;12.50;99.90;;;;;;4998808;28;20229;-81
2024/02/11 07:55:57;;;;;;;86.87;17.63;;;12.50;99.90;;;;;;5096457;28;20216;-81
2024/02/11 07:58:28;;;;;;;115.10;19.27;;;12.50;99.90;;;;;;5000791;28;20234;-82
2024/02/11 08:00:57;;;;;;;81.77;19.40;;;12.50;99.90;;;;;;5013298;28;20262;-82
2024/02/11 08:03:26;;;;;;;57.47;20.17;;;12.60;99.90;;;;;;5004718;28;20259;-82
2024/02/11 08:05:57;;;;;;;53.47;18.40;;;12.60;99.90;;;;;;5046859;28;20212;-81
2024/02/11 08:08:26;;;;;;;44.57;18.67;;;12.60;99.90;;;;;;5116899;28;20228;-81
2024/02/11 08:10:53;;;;;;;83.00;19.97;;;12.60;99.90;;;;;;5082023;28;20203;-81
2024/02/11 08:13:22;;;;;;;62.13;18.80;;;12.60;99.90;;;;;;4997592;28;20192;-81
2024/02/11 08:15:49;;;;;;;60.50;20.07;;;12.60;99.90;;;;;;5047291;28;20232;-81
2024/02/11 08:18:17;;;;;;;34.20;18.43;;;12.60;99.90;;;;;;5117148;28;20688;-81
2024/02/11 08:20:47;;;;;;;40.10;18.30;;;12.70;99.90;;;;;;5017449;28;20235;-81
2024/02/11 08:23:18;;;;;;;42.53;18.13;;;12.70;99.90;;;;;;4997625;28;20218;-81
2024/02/11 08:25:46;;;;;;;42.13;17.63;;;12.70;99.90;;;;;;4993474;28;20231;-82
2024/02/11 08:28:14;;;;;;;52.50;19.33;;;12.80;99.90;;;;;;5003790;28;20269;-81
2024/02/11 08:30:43;;;;;;;44.13;19.07;;;12.80;99.90;;;;;;4994086;28;20597;-81
2024/02/11 08:33:12;;;;;;;41.40;18.80;;;12.80;99.90;;;;;;5013808;28;20188;-81
2024/02/11 08:35:40;;;;;;;46.40;19.83;;;12.90;99.90;;;;;;4995313;28;20224;-81
2024/02/11 08:38:10;;;;;;;44.10;19.60;;;12.90;99.90;;;;;;5008765;28;20234;-81
2024/02/11 08:40:39;;;;;;;33.67;17.90;;;12.90;99.90;;;;;;5116301;28;20289;-81
2024/02/11 08:43:07;;;;;;;38.60;18.77;;;13.00;99.90;;;;;;5078127;28;20211;-81
2024/02/11 08:45:36;;;;;;;35.30;19.00;;;13.10;99.90;;;;;;4994101;28;20712;-81
2024/02/11 08:48:06;;;;;;;37.50;18.90;;;13.30;99.90;;;;;;5001234;28;20230;-81
2024/02/11 08:50:36;;;;;;;34.10;18.03;;;13.40;99.90;;;;;;5018897;28;20202;-81
2024/02/11 08:53:05;;;;;;;37.20;18.47;;;13.60;99.90;;;;;;5014626;28;20290;-81
2024/02/11 08:55:32;;;;;;;29.13;16.23;;;13.70;99.90;;;;;;5013411;28;20584;-81
2024/02/11 08:58:00;;;;;;;30.53;15.87;;;13.80;99.90;;;;;;5019451;28;20548;-81
2024/02/11 09:00:29;;;;;;;29.23;16.50;;;13.90;99.90;;;;;;5003218;28;20264;-81
2024/02/11 09:02:57;;;;;;;31.07;16.43;;;14.00;99.90;;;;;;5013656;28;20211;-81
2024/02/11 09:05:34;;;;;;;30.27;16.17;;;14.10;99.90;;;;;;4996927;28;20224;-81
2024/02/11 09:08:06;;;;;;;28.33;16.33;;;14.20;99.90;;;;;;4999693;28;20287;-81
2024/02/11 09:10:37;;;;;;;27.33;14.77;;;14.20;99.90;;;;;;4994733;28;20601;-81
2024/02/11 09:13:07;;;;;;;23.27;13.67;;;14.20;99.90;;;;;;5008359;28;20196;-81
2024/02/11 09:15:38;;;;;;;27.50;14.13;;;14.30;99.90;;;;;;5015192;28;20258;-81
2024/02/11 09:18:08;;;;;;;23.80;14.70;;;14.30;99.90;;;;;;5045705;27;20193;-81
2024/02/11 09:20:39;;;;;;;23.67;14.33;;;14.30;99.90;;;;;;5006509;28;20200;-81
2024/02/11 09:23:08;;;;;;;23.53;13.47;;;14.30;99.90;;;;;;5005644;28;20212;-81
2024/02/11 09:25:42;;;;;;;21.97;13.17;;;14.30;99.90;;;;;;5016353;28;20215;-81
2024/02/11 09:28:11;;;;;;;25.00;14.13;;;14.30;99.90;;;;;;5016049;28;20246;-81
2024/02/11 09:30:42;;;;;;;22.53;14.73;;;14.40;99.90;;;;;;4983815;28;20214;-81
2024/02/11 09:33:11;;;;;;;17.87;12.20;;;14.40;99.90;;;;;;5003729;28;20229;-81
2024/02/11 09:35:44;;;;;;;22.47;15.33;;;14.50;99.90;;;;;;5013090;28;20283;-81
2024/02/11 09:38:15;;;;;;;24.17;15.13;;;14.50;99.90;;;;;;5008252;28;20665;-81
2024/02/11 09:40:44;;;;;;;21.33;13.37;;;14.60;99.90;;;;;;5019210;28;20207;-81
2024/02/11 09:43:15;;;;;;;20.73;14.00;;;14.60;99.90;;;;;;5019876;28;20663;-81
2024/02/11 09:45:45;;;;;;;23.23;14.07;;;14.50;99.90;;;;;;5000510;28;20312;-81
2024/02/11 09:48:15;;;;;;;23.27;14.10;;;14.50;99.90;;;;;;5001530;28;20298;-81
2024/02/11 09:50:45;;;;;;;20.17;13.07;;;14.50;99.90;;;;;;5001444;28;20207;-81
2024/02/11 09:53:14;;;;;;;19.90;13.50;;;14.40;99.90;;;;;;4987656;28;20545;-81
2024/02/11 09:55:46;;;;;;;21.20;14.27;;;14.40;99.90;;;;;;5039542;28;20644;-81
2024/02/11 09:58:13;;;;;;;17.90;13.30;;;14.30;99.90;;;;;;5030784;28;20582;-81
2024/02/11 10:00:45;;;;;;;18.60;12.07;;;14.30;99.90;;;;;;5013956;28;20294;-81
2024/02/11 10:03:18;;;;;;;20.53;13.33;;;14.30;99.90;;;;;;5023496;28;20294;-81
2024/02/11 10:05:50;;;;;;;18.43;12.17;;;14.20;99.90;;;;;;5013281;28;20236;-81
2024/02/11 10:08:19;;;;;;;20.53;12.77;;;14.20;99.90;;;;;;5005788;28;20269;-81
2024/02/11 10:10:50;;;;;;;19.27;12.77;;;14.20;99.90;;;;;;4988877;28;20207;-81
2024/02/11 10:13:25;;;;;;;21.30;13.37;;;14.10;99.90;;;;;;5015033;28;20206;-81
2024/02/11 10:15:55;;;;;;;20.80;13.50;;;14.10;99.90;;;;;;4999759;28;20208;-81
2024/02/11 10:18:23;;;;;;;21.70;13.00;;;14.10;99.90;;;;;;4985916;28;20311;-81
2024/02/11 10:20:52;;;;;;;26.20;13.97;;;14.10;99.90;;;;;;5062463;28;20208;-81
2024/02/11 10:23:24;;;;;;;19.10;13.00;;;14.20;99.90;;;;;;5029742;28;20207;-81
2024/02/11 10:25:59;;;;;;;19.90;12.77;;;14.20;99.90;;;;;;5006488;28;20219;-81
2024/02/11 10:28:27;;;;;;;20.47;13.73;;;14.20;99.90;;;;;;5106200;28;20536;-81
2024/02/11 10:30:56;;;;;;;22.93;12.33;;;14.20;99.90;;;;;;4998655;28;20204;-81
2024/02/11 10:33:26;;;;;;;18.83;10.90;;;14.20;99.90;;;;;;5014822;28;20197;-81
2024/02/11 10:35:56;;;;;;;20.70;10.43;;;14.20;99.90;;;;;;5065793;28;20218;-81
2024/02/11 10:38:27;;;;;;;17.27;10.53;;;14.20;99.90;;;;;;5016665;28;20215;-81
2024/02/11 10:41:01;;;;;;;18.87;10.97;;;14.20;99.90;;;;;;4997262;28;20300;-81
2024/02/11 10:43:32;;;;;;;19.97;11.80;;;14.20;99.90;;;;;;4995844;28;20204;-81
2024/02/11 10:46:02;;;;;;;21.47;10.73;;;14.20;99.90;;;;;;5063327;28;20544;-81
2024/02/11 10:48:30;;;;;;;17.13;10.63;;;14.10;99.90;;;;;;5073458;28;20238;-82
2024/02/11 10:51:11;;;;;;;13.67;9.87;;;14.20;99.90;;;;;;5025528;28;20216;-81
2024/02/11 10:53:50;;;;;;;14.33;9.47;;;14.20;99.90;;;;;;5041662;28;20188;-82
2024/02/11 10:56:23;;;;;;;16.93;9.77;;;14.20;99.90;;;;;;5037805;28;20212;-81
2024/02/11 10:59:10;;;;;;;14.53;9.00;;;14.20;99.90;;;;;;5016105;28;20308;-81
2024/02/11 11:01:39;;;;;;;15.30;8.80;;;14.30;99.90;;;;;;5024574;28;20321;-81
2024/02/11 11:04:13;;;;;;;12.97;9.00;;;14.30;99.90;;;;;;4998646;28;20306;-82
2024/02/11 11:06:45;;;;;;;17.30;8.73;;;14.40;99.90;;;;;;4996298;28;20227;-82
2024/02/11 11:09:13;;;;;;;10.23;7.50;;;14.50;99.90;;;;;;4998490;28;20577;-82
2024/02/11 11:11:43;;;;;;;11.20;7.43;;;14.50;99.90;;;;;;4994959;28;20248;-82
2024/02/11 11:14:12;;;;;;;12.07;8.20;;;14.60;99.90;;;;;;5012105;28;20291;-82
2024/02/11 11:16:41;;;;;;;15.10;9.23;;;14.60;99.90;;;;;;5012564;28;20209;-82
2024/02/11 11:19:14;;;;;;;15.13;10.23;;;14.60;99.90;;;;;;5011469;28;20212;-82
2024/02/11 11:21:58;;;;;;;17.47;9.97;;;14.50;99.90;;;;;;4981593;28;20212;-82
2024/02/11 11:24:29;;;;;;;13.83;10.20;;;14.40;99.90;;;;;;5025760;28;20215;-82
2024/02/11 11:26:56;;;;;;;17.60;11.63;;;14.30;99.90;;;;;;4997606;28;20223;-83
2024/02/11 11:29:30;;;;;;;21.43;12.37;;;14.30;99.90;;;;;;4994957;28;20212;-82
2024/02/11 11:31:59;;;;;;;25.27;12.37;;;14.20;99.90;;;;;;4992829;28;20261;-82
2024/02/11 11:34:31;;;;;;;19.73;12.77;;;14.10;99.90;;;;;;4998384;28;20214;-83
2024/02/11 11:37:15;;;;;;;22.27;14.07;;;14.10;99.90;;;;;;4997124;28;20276;-83
2024/02/11 11:39:45;;;;;;;20.23;13.03;;;14.00;99.90;;;;;;5003392;28;20216;-83
2024/02/11 11:42:17;;;;;;;24.83;15.20;;;14.00;99.90;;;;;;4997575;28;20302;-83
2024/02/11 11:44:47;;;;;;;26.23;12.83;;;13.90;99.90;;;;;;5009613;28;20273;-83
2024/02/11 11:47:19;;;;;;;19.80;13.07;;;13.80;99.90;;;;;;5014436;28;20235;-83
2024/02/11 11:49:49;;;;;;;23.03;14.30;;;13.80;99.90;;;;;;5014331;28;20256;-83
2024/02/11 11:52:19;;;;;;;21.87;13.70;;;13.80;99.90;;;;;;5014497;28;20226;-83
2024/02/11 11:54:47;;;;;;;22.80;13.33;;;13.80;99.90;;;;;;5016254;28;20209;-84
2024/02/11 11:57:18;;;;;;;23.47;13.67;;;13.80;99.90;;;;;;5005404;28;20229;-82
2024/02/11 11:59:55;;;;;;;25.60;13.00;;;13.70;99.90;;;;;;4993143;28;20560;-83
2024/02/11 12:02:29;;;;;;;24.07;12.93;;;13.80;99.90;;;;;;5011545;28;20282;-82
2024/02/11 12:04:57;;;;;;;18.10;10.70;;;13.70;99.90;;;;;;5065966;28;20207;-82
2024/02/11 12:07:26;;;;;;;17.13;10.53;;;13.70;99.90;;;;;;5013337;28;20226;-82
2024/02/11 12:09:56;;;;;;;15.97;10.00;;;13.70;99.90;;;;;;5039718;28;20592;-82
2024/02/11 12:12:27;;;;;;;15.73;9.00;;;13.60;99.90;;;;;;5012923;28;20188;-83
2024/02/11 12:14:55;;;;;;;12.03;8.60;;;13.60;99.90;;;;;;5069922;28;20265;-83
2024/02/11 12:17:24;;;;;;;12.27;8.40;;;13.60;99.90;;;;;;4996720;28;20303;-83
2024/02/11 12:19:53;;;;;;;11.60;7.57;;;13.70;99.90;;;;;;5013788;28;20215;-83
2024/02/11 12:22:25;;;;;;;10.17;6.97;;;13.60;99.90;;;;;;5009775;28;20301;-84
2024/02/11 12:24:52;;;;;;;11.47;8.23;;;13.60;99.90;;;;;;5009893;28;20247;-83
2024/02/11 12:27:27;;;;;;;8.90;7.23;;;13.60;99.90;;;;;;4985638;28;20212;-82
2024/02/11 12:30:00;;;;;;;8.80;7.90;;;13.60;99.90;;;;;;4999540;28;20246;-83
2024/02/11 12:32:35;;;;;;;10.83;8.27;;;13.60;99.90;;;;;;5014814;28;20271;-83
2024/02/11 12:35:06;;;;;;;13.40;9.57;;;13.60;99.90;;;;;;5004026;28;20281;-83
2024/02/11 12:37:38;;;;;;;13.70;10.47;;;13.60;99.90;;;;;;5002192;28;20218;-82
2024/02/11 12:40:09;;;;;;;15.20;10.33;;;13.50;99.90;;;;;;5015791;28;20259;-83
2024/02/11 12:42:38;;;;;;;18.57;13.70;;;13.50;99.90;;;;;;5013274;28;20207;-82
2024/02/11 12:45:06;;;;;;;16.10;12.63;;;13.50;99.90;;;;;;5004113;28;20236;-83